createdAt,value
2019-04-26T00:00:50.431Z,83.32
2019-04-26T00:03:23.064Z,82.97
2019-04-26T00:05:51.875Z,83.19
2019-04-26T00:08:22.080Z,82.65
2019-04-26T00:10:54.385Z,82.84
2019-04-26T00:13:28.298Z,83.21
2019-04-26T00:16:01.258Z,83.55
2019-04-26T00:18:30.147Z,82.91
2019-04-26T00:20:59.630Z,83.74
2019-04-26T00:23:28.443Z,83.44
2019-04-26T00:25:57.256Z,83.49
2019-04-26T00:28:26.044Z,83.26
2019-04-26T00:30:54.859Z,83.36
2019-04-26T00:33:23.651Z,83.35
2019-04-26T00:35:52.448Z,83.49
2019-04-26T00:38:22.317Z,83.15
2019-04-26T00:40:50.751Z,83.50
2019-04-26T00:43:20.510Z,83.02
2019-04-26T00:45:49.721Z,83.39
2019-04-26T00:48:19.127Z,83.17
2019-04-26T00:50:48.835Z,83.42
2019-04-26T00:53:17.760Z,83.22
2019-04-26T00:55:46.547Z,82.89
2019-04-26T00:58:16.349Z,82.92
2019-04-26T01:00:44.153Z,82.80
2019-04-26T01:03:12.983Z,82.68
2019-04-26T01:05:41.779Z,82.70
2019-04-26T01:08:10.596Z,82.13
2019-04-26T01:10:39.394Z,82.29
2019-04-26T01:13:08.222Z,82.21
2019-04-26T01:15:37.016Z,82.23
2019-04-26T01:18:05.843Z,81.80
2019-04-26T01:20:35.371Z,81.83
2019-04-26T01:23:04.259Z,81.75
2019-04-26T01:25:41.088Z,81.21
2019-04-26T01:28:11.393Z,81.15
2019-04-26T01:30:40.186Z,80.58
2019-04-26T01:33:08.992Z,80.59
2019-04-26T01:35:37.805Z,80.58
2019-04-26T01:38:06.712Z,80.62
2019-04-26T01:40:35.537Z,80.59
2019-04-26T01:43:10.737Z,80.82
2019-04-26T01:45:47.720Z,80.36
2019-04-26T01:48:27.921Z,80.48
2019-04-26T01:50:56.719Z,80.64
2019-04-26T01:53:26.622Z,80.42
2019-04-26T01:55:54.314Z,80.09
2019-04-26T01:58:23.300Z,80.68
2019-04-26T02:00:56.143Z,80.71
2019-04-26T02:03:28.214Z,80.60
2019-04-26T02:05:57.041Z,80.26
2019-04-26T02:08:26.272Z,80.19
2019-04-26T02:10:55.523Z,80.40
2019-04-26T02:13:25.179Z,80.39
2019-04-26T02:15:53.122Z,80.16
2019-04-26T02:18:23.168Z,80.23
2019-04-26T02:20:53.707Z,79.84
2019-04-26T02:23:27.860Z,79.57
2019-04-26T02:25:55.615Z,79.75
2019-04-26T02:28:25.540Z,80.23
2019-04-26T02:30:53.225Z,80.14
2019-04-26T02:33:22.062Z,79.82
2019-04-26T02:35:50.854Z,79.92
2019-04-26T02:38:19.662Z,79.91
2019-04-26T02:40:48.461Z,79.69
2019-04-26T02:43:17.225Z,80.02
2019-04-26T02:45:54.417Z,79.77
2019-04-26T02:48:29.064Z,79.53
2019-04-26T02:50:58.383Z,79.23
2019-04-26T02:53:33.543Z,79.88
2019-04-26T02:56:13.728Z,79.66
2019-04-26T02:58:46.260Z,79.17
2019-04-26T03:01:16.116Z,79.30
2019-04-26T03:03:44.917Z,79.65
2019-04-26T03:06:13.697Z,79.31
2019-04-26T03:08:42.778Z,79.61
2019-04-26T03:11:17.109Z,79.86
2019-04-26T03:13:49.808Z,79.70
2019-04-26T03:16:24.159Z,79.88
2019-04-26T03:18:59.873Z,79.88
2019-04-26T03:21:36.454Z,80.12
2019-04-26T03:24:13.041Z,79.71
2019-04-26T03:26:57.751Z,79.72
2019-04-26T03:29:36.613Z,79.84
2019-04-26T03:32:39.215Z,79.46
2019-04-26T03:35:10.690Z,79.39
2019-04-26T03:37:52.273Z,79.80
2019-04-26T03:40:32.566Z,80.00
2019-04-26T03:43:12.018Z,79.61
2019-04-26T03:46:00.262Z,79.39
2019-04-26T03:48:43.487Z,79.75
2019-04-26T03:51:13.397Z,79.68
2019-04-26T03:53:49.177Z,79.79
2019-04-26T03:56:55.873Z,79.37
2019-04-26T03:59:51.043Z,79.68
2019-04-26T04:02:36.662Z,79.57
2019-04-26T04:05:12.232Z,79.40
2019-04-26T04:07:47.188Z,79.70
2019-04-26T04:10:13.480Z,79.46
2019-04-26T04:12:49.890Z,79.90
2019-04-26T04:15:23.536Z,79.92
2019-04-26T04:17:57.948Z,79.94
2019-04-26T04:20:44.402Z,80.05
2019-04-26T04:23:21.914Z,79.83
2019-04-26T04:25:50.691Z,80.15
2019-04-26T04:28:28.956Z,80.03
2019-04-26T04:31:04.141Z,80.45
2019-04-26T04:33:43.691Z,79.89
2019-04-26T04:36:16.490Z,80.05
2019-04-26T04:39:10.820Z,80.41
2019-04-26T04:41:30.458Z,80.28
2019-04-26T04:44:09.109Z,80.17
2019-04-26T04:47:31.758Z,80.18
2019-04-26T04:50:40.967Z,80.00
2019-04-26T04:53:20.020Z,80.39
2019-04-26T04:55:58.207Z,80.31
2019-04-26T04:58:33.268Z,80.43
2019-04-26T05:01:20.096Z,80.30
2019-04-26T05:03:53.159Z,80.48
2019-04-26T05:06:34.026Z,80.35
2019-04-26T05:09:09.269Z,80.69
2019-04-26T05:11:49.934Z,80.75
2019-04-26T05:14:25.818Z,80.34
2019-04-26T05:17:07.949Z,80.68
2019-04-26T05:20:48.772Z,80.84
2019-04-26T05:24:28.967Z,80.43
2019-04-26T05:27:24.790Z,80.52
2019-04-26T05:30:15.155Z,80.72
2019-04-26T05:32:52.633Z,80.86
2019-04-26T05:36:32.494Z,80.48
2019-04-26T05:39:07.115Z,80.64
2019-04-26T05:43:00.813Z,80.77
2019-04-26T05:45:47.805Z,80.71
2019-04-26T05:48:31.803Z,80.48
2019-04-26T05:51:33.359Z,80.60
2019-04-26T05:54:17.529Z,80.80
2019-04-26T05:56:54.869Z,80.54
2019-04-26T05:59:36.200Z,80.71
2019-04-26T06:02:49.990Z,80.34
2019-04-26T06:05:30.660Z,80.27
2019-04-26T06:09:14.427Z,80.03
2019-04-26T06:11:47.997Z,79.52
2019-04-26T06:14:39.809Z,79.59
2019-04-26T06:17:20.928Z,79.58
2019-04-26T06:20:03.839Z,79.75
2019-04-26T06:22:41.344Z,79.82
2019-04-26T06:25:26.533Z,79.69
2019-04-26T06:28:02.650Z,79.05
2019-04-26T06:30:45.562Z,79.03
2019-04-26T06:33:23.988Z,79.00
2019-04-26T06:35:54.118Z,78.90
2019-04-26T06:38:54.290Z,78.81
2019-04-26T06:41:43.892Z,78.93
2019-04-26T06:44:13.609Z,78.64
2019-04-26T06:46:54.942Z,78.05
2019-04-26T06:49:43.412Z,78.42
2019-04-26T06:52:13.405Z,77.87
2019-04-26T06:54:56.264Z,77.50
2019-04-26T06:57:41.189Z,76.95
2019-04-26T07:00:15.171Z,76.89
2019-04-26T07:02:53.301Z,76.16
2019-04-26T07:05:25.171Z,76.41
2019-04-26T07:08:10.700Z,75.75
2019-04-26T07:10:44.574Z,75.77
2019-04-26T07:13:25.800Z,75.81
2019-04-26T07:16:18.036Z,75.35
2019-04-26T07:18:44.117Z,75.34
2019-04-26T07:21:27.687Z,75.20
2019-04-26T07:24:29.791Z,74.33
2019-04-26T07:27:13.438Z,74.26
2019-04-26T07:29:58.941Z,73.78
2019-04-26T07:35:01.087Z,74.07
2019-04-26T07:37:43.181Z,73.25
2019-04-26T07:41:23.836Z,72.77
2019-04-26T07:44:03.838Z,72.64
2019-04-26T07:47:40.847Z,72.61
2019-04-26T07:50:18.618Z,71.83
2019-04-26T07:52:57.602Z,71.78
2019-04-26T07:55:32.337Z,71.67
2019-04-26T07:58:16.342Z,71.13
2019-04-26T08:00:49.027Z,70.97
2019-04-26T08:03:26.767Z,71.01
2019-04-26T08:06:04.547Z,70.62
2019-04-26T08:08:38.460Z,71.22
2019-04-26T08:11:11.467Z,70.59
2019-04-26T08:13:49.091Z,70.39
2019-04-26T08:16:23.043Z,69.33
2019-04-26T08:18:56.262Z,68.28
2019-04-26T08:21:31.755Z,68.15
2019-04-26T08:24:05.193Z,67.89
2019-04-26T08:26:32.930Z,66.95
2019-04-26T08:29:01.715Z,67.45
2019-04-26T08:31:30.729Z,66.66
2019-04-26T08:34:01.483Z,66.46
2019-04-26T08:36:30.996Z,66.74
2019-04-26T08:38:59.839Z,67.08
2019-04-26T08:41:28.626Z,65.77
2019-04-26T08:44:11.860Z,65.62
2019-04-26T08:46:52.038Z,65.59
2019-04-26T08:49:28.968Z,64.57
2019-04-26T08:51:57.814Z,63.93
2019-04-26T08:54:27.616Z,64.64
2019-04-26T08:57:00.840Z,64.41
2019-04-26T08:59:30.090Z,63.82
2019-04-26T09:02:04.048Z,64.07
2019-04-26T09:04:37.003Z,63.42
2019-04-26T09:07:08.059Z,64.01
2019-04-26T09:09:36.848Z,63.63
2019-04-26T09:12:08.166Z,63.05
2019-04-26T09:14:35.798Z,61.80
2019-04-26T09:17:04.776Z,62.74
2019-04-26T09:19:33.505Z,60.22
2019-04-26T09:22:13.618Z,60.62
2019-04-26T09:24:45.873Z,60.69
2019-04-26T09:27:22.569Z,60.77
2019-04-26T09:31:58.303Z,60.72
2019-04-26T09:34:28.119Z,61.17
2019-04-26T09:36:56.931Z,60.38
2019-04-26T09:39:25.792Z,60.78
2019-04-26T09:41:55.281Z,60.74
2019-04-26T09:44:32.867Z,61.07
2019-04-26T09:47:05.957Z,60.01
2019-04-26T09:49:41.137Z,60.13
2019-04-26T09:52:11.511Z,59.00
2019-04-26T09:54:40.393Z,58.60
2019-04-26T09:57:09.242Z,58.70
2019-04-26T09:59:39.990Z,58.91
2019-04-26T10:02:06.926Z,58.05
2019-04-26T10:04:35.706Z,57.78
2019-04-26T10:07:04.507Z,56.86
2019-04-26T10:09:33.377Z,57.10
2019-04-26T10:12:08.729Z,57.02
2019-04-26T10:14:48.650Z,57.16
2019-04-26T10:17:25.219Z,57.20
2019-04-26T10:19:55.619Z,56.85
2019-04-26T10:22:24.946Z,57.63
2019-04-26T10:24:53.751Z,56.98
2019-04-26T10:27:22.612Z,56.79
2019-04-26T10:29:51.403Z,55.67
2019-04-26T10:32:21.660Z,54.82
2019-04-26T10:34:49.046Z,55.03
2019-04-26T10:37:17.848Z,54.58
2019-04-26T10:39:46.779Z,54.33
2019-04-26T10:42:15.555Z,52.56
2019-04-26T10:44:44.381Z,52.42
2019-04-26T10:47:15.677Z,51.43
2019-04-26T10:49:43.269Z,52.83
2019-04-26T10:52:15.806Z,51.44
2019-04-26T10:54:46.055Z,51.66
2019-04-26T10:57:16.682Z,49.82
2019-04-26T10:59:49.681Z,50.71
2019-04-26T11:02:19.475Z,50.68
2019-04-26T11:04:49.050Z,51.20
2019-04-26T11:07:17.817Z,50.85
2019-04-26T11:09:46.719Z,50.54
2019-04-26T11:12:15.541Z,50.48
2019-04-26T11:14:44.344Z,50.64
2019-04-26T11:17:16.010Z,49.49
2019-04-26T11:19:44.119Z,49.52
2019-04-26T11:22:10.767Z,49.27
2019-04-26T11:24:39.570Z,48.41
2019-04-26T11:27:09.587Z,49.49
2019-04-26T11:29:37.182Z,48.92
2019-04-26T11:32:05.965Z,46.79
2019-04-26T11:34:34.789Z,47.40
2019-04-26T11:37:03.554Z,48.23
2019-04-26T11:39:32.346Z,48.00
2019-04-26T11:42:01.471Z,48.58
2019-04-26T11:44:30.274Z,49.10
2019-04-26T11:46:59.321Z,48.71
2019-04-26T11:49:27.845Z,48.07
2019-04-26T11:51:58.539Z,47.60
2019-04-26T11:54:26.603Z,46.70
2019-04-26T11:56:55.452Z,46.80
2019-04-26T11:59:27.085Z,46.27
2019-04-26T12:01:53.160Z,46.39
2019-04-26T12:04:33.178Z,44.52
2019-04-26T12:07:08.247Z,44.11
2019-04-26T12:09:38.774Z,44.67
2019-04-26T12:12:09.306Z,44.43
2019-04-26T12:14:37.362Z,45.58
2019-04-26T12:17:07.281Z,44.42
2019-04-26T12:19:36.119Z,44.00
2019-04-26T12:22:08.328Z,44.09
2019-04-26T12:24:34.503Z,42.49
2019-04-26T12:27:03.352Z,44.03
2019-04-26T12:29:33.781Z,43.94
2019-04-26T12:32:03.936Z,42.57
2019-04-26T12:34:34.944Z,42.80
2019-04-26T12:37:04.677Z,42.92
2019-04-26T12:39:36.757Z,41.97
2019-04-26T12:42:02.336Z,41.85
2019-04-26T12:44:36.382Z,41.39
2019-04-26T12:47:09.151Z,40.87
2019-04-26T12:49:37.973Z,41.49
2019-04-26T12:52:06.770Z,40.34
2019-04-26T12:54:38.980Z,40.50
2019-04-26T12:57:05.836Z,40.80
2019-04-26T12:59:44.062Z,40.14
2019-04-26T13:02:05.698Z,39.14
2019-04-26T13:04:36.225Z,38.70
2019-04-26T13:07:22.728Z,38.92
2019-04-26T13:09:39.173Z,38.70
2019-04-26T13:12:16.859Z,38.71
2019-04-26T13:14:50.940Z,39.69
2019-04-26T13:17:22.757Z,39.72
2019-04-26T13:19:53.890Z,39.23
2019-04-26T13:22:20.316Z,37.69
2019-04-26T13:24:49.139Z,38.16
2019-04-26T13:27:17.904Z,37.05
2019-04-26T13:29:48.213Z,37.31
2019-04-26T13:32:15.608Z,38.07
2019-04-26T13:34:44.494Z,37.21
2019-04-26T13:37:13.339Z,37.24
2019-04-26T13:39:42.128Z,38.39
2019-04-26T13:42:13.715Z,39.34
2019-04-26T13:44:45.111Z,39.32
2019-04-26T13:47:21.145Z,39.70
2019-04-26T13:49:54.180Z,40.06
2019-04-26T13:52:23.018Z,39.86
2019-04-26T13:54:55.465Z,39.83
2019-04-26T13:57:21.423Z,40.79
2019-04-26T13:59:51.580Z,39.94
2019-04-26T14:02:21.596Z,40.59
2019-04-26T14:04:50.388Z,40.55
2019-04-26T14:07:20.058Z,40.34
2019-04-26T14:09:48.276Z,40.65
2019-04-26T14:12:19.028Z,40.94
2019-04-26T14:14:45.966Z,41.01
2019-04-26T14:17:17.604Z,39.49
2019-04-26T14:19:49.599Z,39.79
2019-04-26T14:22:15.269Z,40.71
2019-04-26T14:24:48.387Z,42.05
2019-04-26T14:27:23.215Z,41.62
2019-04-26T14:29:53.566Z,41.69
2019-04-26T14:32:23.234Z,40.46
2019-04-26T14:34:51.347Z,41.00
2019-04-26T14:37:20.443Z,41.01
2019-04-26T14:39:50.949Z,41.03
2019-04-26T14:42:33.107Z,40.43
2019-04-26T14:44:49.682Z,40.41
2019-04-26T14:47:18.069Z,40.56
2019-04-26T14:49:45.817Z,39.63
2019-04-26T14:52:14.603Z,38.74
2019-04-26T14:54:46.075Z,38.16
2019-04-26T14:57:19.910Z,38.32
2019-04-26T14:59:47.821Z,38.42
2019-04-26T15:02:55.787Z,39.03
2019-04-26T15:05:26.325Z,39.15
2019-04-26T15:07:55.711Z,38.41
2019-04-26T15:10:41.350Z,38.55
2019-04-26T15:13:12.459Z,38.63
2019-04-26T15:15:26.867Z,38.00
2019-04-26T15:17:59.366Z,39.77
2019-04-26T15:20:25.643Z,39.09
2019-04-26T15:22:54.411Z,39.64
2019-04-26T15:25:23.224Z,39.42
2019-04-26T15:27:53.462Z,40.06
2019-04-26T15:30:23.967Z,39.88
2019-04-26T15:32:52.783Z,39.74
2019-04-26T15:35:19.871Z,39.68
2019-04-26T15:37:48.839Z,39.19
2019-04-26T15:42:29.222Z,39.14
2019-04-26T15:45:13.016Z,39.90
2019-04-26T15:47:58.655Z,39.87
2019-04-26T15:50:31.777Z,39.51
2019-04-26T15:53:02.390Z,38.84
2019-04-26T15:55:33.793Z,39.37
2019-04-26T15:58:02.635Z,38.04
2019-04-26T16:00:28.462Z,38.16
2019-04-26T16:02:58.659Z,38.32
2019-04-26T16:05:29.442Z,37.31
2019-04-26T16:07:57.380Z,37.47
2019-04-26T16:10:25.736Z,38.14
2019-04-26T16:12:52.382Z,38.95
2019-04-26T16:15:20.816Z,38.79
2019-04-26T16:17:49.953Z,38.45
2019-04-26T16:20:18.740Z,39.71
2019-04-26T16:22:49.100Z,39.73
2019-04-26T16:25:17.141Z,39.92
2019-04-26T16:27:45.982Z,39.81
2019-04-26T16:30:37.653Z,40.66
2019-04-26T16:33:14.594Z,40.11
2019-04-26T16:35:43.373Z,40.30
2019-04-26T16:38:19.952Z,41.54
2019-04-26T16:40:50.771Z,41.62
2019-04-26T16:43:15.087Z,40.56
2019-04-26T16:45:43.877Z,41.04
2019-04-26T16:48:17.277Z,41.82
2019-04-26T16:50:46.210Z,42.06
2019-04-26T16:53:36.506Z,41.27
2019-04-26T16:55:50.548Z,41.78
2019-04-26T16:58:08.960Z,41.75
2019-04-26T17:00:50.288Z,41.60
2019-04-26T17:03:07.841Z,41.47
2019-04-26T17:05:47.796Z,41.91
2019-04-26T17:08:09.979Z,42.67
2019-04-26T17:10:33.243Z,42.41
2019-04-26T17:13:03.172Z,42.74
2019-04-26T17:15:32.330Z,42.81
2019-04-26T17:17:59.678Z,43.44
2019-04-26T17:20:28.453Z,43.24
2019-04-26T17:23:03.409Z,43.95
2019-04-26T17:25:37.498Z,44.21
2019-04-26T17:28:11.933Z,44.50
2019-04-26T17:30:42.449Z,44.49
2019-04-26T17:33:07.952Z,44.66
2019-04-26T17:35:40.902Z,44.75
2019-04-26T17:38:07.445Z,44.89
2019-04-26T17:40:37.929Z,45.37
2019-04-26T17:43:05.326Z,45.13
2019-04-26T17:45:36.321Z,45.75
2019-04-26T17:48:06.540Z,45.51
2019-04-26T17:50:35.458Z,45.79
2019-04-26T17:53:02.548Z,45.48
2019-04-26T17:55:33.609Z,45.77
2019-04-26T17:58:11.927Z,45.65
2019-04-26T18:00:45.312Z,46.26
2019-04-26T18:03:03.457Z,46.17
2019-04-26T18:05:41.959Z,46.14
2019-04-26T18:08:30.423Z,46.52
2019-04-26T18:10:30.646Z,46.83
2019-04-26T18:13:00.453Z,47.33
2019-04-26T18:15:28.195Z,47.88
2019-04-26T18:19:06.322Z,47.46
2019-04-26T18:21:49.624Z,47.87
2019-04-26T18:24:16.332Z,47.89
2019-04-26T18:26:45.980Z,48.61
2019-04-26T18:29:14.889Z,49.52
2019-04-26T18:31:44.845Z,49.99
2019-04-26T18:34:13.639Z,50.09
2019-04-26T18:36:43.028Z,50.29
2019-04-26T18:39:18.098Z,51.11
2019-04-26T18:41:43.942Z,52.16
2019-04-26T18:44:13.770Z,53.11
2019-04-26T18:46:47.283Z,53.65
2019-04-26T18:49:18.172Z,53.26
2019-04-26T18:51:48.275Z,53.65
2019-04-26T18:54:23.412Z,53.35
2019-04-26T18:56:56.466Z,53.72
2019-04-26T18:59:27.695Z,54.04
2019-04-26T19:01:54.478Z,53.64
2019-04-26T19:04:23.741Z,53.60
2019-04-26T19:06:52.295Z,54.49
2019-04-26T19:09:22.774Z,54.24
2019-04-26T19:11:52.827Z,55.43
2019-04-26T19:14:25.680Z,56.16
2019-04-26T19:17:01.872Z,55.97
2019-04-26T19:19:36.804Z,56.22
2019-04-26T19:22:09.420Z,56.52
2019-04-26T19:24:34.527Z,56.47
2019-04-26T19:27:04.183Z,56.39
2019-04-26T19:29:35.890Z,56.77
2019-04-26T19:32:03.933Z,56.27
2019-04-26T19:34:30.374Z,57.01
2019-04-26T19:36:59.746Z,56.60
2019-04-26T19:39:32.265Z,56.82
2019-04-26T19:41:57.738Z,56.71
2019-04-26T19:44:25.276Z,56.41
2019-04-26T19:47:05.523Z,56.04
2019-04-26T19:49:38.143Z,56.50
2019-04-26T19:52:11.771Z,56.30
2019-04-26T19:54:43.689Z,57.09
2019-04-26T19:57:17.162Z,57.18
2019-04-26T19:59:45.967Z,57.14
2019-04-26T20:02:14.826Z,56.83
2019-04-26T20:04:43.672Z,57.18
2019-04-26T20:07:12.515Z,56.92
2019-04-26T20:09:41.970Z,57.25
2019-04-26T20:12:12.115Z,58.76
2019-04-26T20:14:47.137Z,59.00
2019-04-26T20:17:13.308Z,59.06
2019-04-26T20:19:37.792Z,58.91
2019-04-26T20:22:06.642Z,59.19
2019-04-26T20:24:35.767Z,59.61
2019-04-26T20:27:05.140Z,59.77
2019-04-26T20:29:33.939Z,60.71
2019-04-26T20:32:09.755Z,60.26
2019-04-26T20:34:40.912Z,60.95
2019-04-26T20:37:08.407Z,60.88
2019-04-26T20:39:37.346Z,61.11
2019-04-26T20:42:06.972Z,61.37
2019-04-26T20:44:49.037Z,61.61
2019-04-26T20:47:07.626Z,61.63
2019-04-26T20:49:47.377Z,62.50
2019-04-26T20:52:06.786Z,62.39
2019-04-26T20:54:36.343Z,62.58
2019-04-26T20:57:05.161Z,62.43
2019-04-26T20:59:33.955Z,62.46
2019-04-26T21:02:07.689Z,62.20
2019-04-26T21:04:38.000Z,62.51
2019-04-26T21:07:02.276Z,62.14
2019-04-26T21:09:29.234Z,61.86
2019-04-26T21:11:58.135Z,62.05
2019-04-26T21:14:27.090Z,61.39
2019-04-26T21:16:56.224Z,61.46
2019-04-26T21:19:25.725Z,61.44
2019-04-26T21:21:54.517Z,61.22
2019-04-26T21:24:23.628Z,60.80
2019-04-26T21:27:00.379Z,61.23
2019-04-26T21:29:33.348Z,60.68
2019-04-26T21:32:10.164Z,61.50
2019-04-26T21:34:40.059Z,60.92
2019-04-26T21:37:20.504Z,61.12
2019-04-26T21:39:50.071Z,61.10
2019-04-26T21:42:20.982Z,60.90
2019-04-26T21:44:51.782Z,61.34
2019-04-26T21:47:16.656Z,61.05
2019-04-26T21:49:45.496Z,61.10
2019-04-26T21:52:14.360Z,61.23
2019-04-26T21:54:43.260Z,61.55
2019-04-26T21:57:11.938Z,61.51
2019-04-26T21:59:44.086Z,61.83
2019-04-26T22:02:10.855Z,61.82
2019-04-26T22:04:39.709Z,62.00
2019-04-26T22:07:08.628Z,62.20
2019-04-26T22:09:47.879Z,62.17
2019-04-26T22:12:16.826Z,61.80
2019-04-26T22:14:50.646Z,62.39
2019-04-26T22:17:25.792Z,62.36
2019-04-26T22:20:06.989Z,62.46
2019-04-26T22:22:37.497Z,62.19
2019-04-26T22:25:06.654Z,62.56
2019-04-26T22:27:35.464Z,62.98
2019-04-26T22:30:04.316Z,62.39
2019-04-26T22:32:34.338Z,62.42
2019-04-26T22:35:03.298Z,62.54
2019-04-26T22:37:33.718Z,62.40
2019-04-26T22:40:01.092Z,62.51
2019-04-26T22:42:32.969Z,62.53
2019-04-26T22:45:09.333Z,62.70
2019-04-26T22:47:40.921Z,62.78
2019-04-26T22:50:04.235Z,62.96
2019-04-26T22:52:33.456Z,62.90
2019-04-26T22:55:04.061Z,63.04
2019-04-26T22:57:33.410Z,63.43
2019-04-26T23:00:01.114Z,62.94
2019-04-26T23:02:29.899Z,63.20
2019-04-26T23:05:00.452Z,63.57
2019-04-26T23:07:29.892Z,63.70
2019-04-26T23:09:59.822Z,63.97
2019-04-26T23:12:33.930Z,63.80
2019-04-26T23:15:25.659Z,64.33
2019-04-26T23:17:55.733Z,64.47
2019-04-26T23:20:34.299Z,64.70
2019-04-26T23:23:00.518Z,64.74
2019-04-26T23:25:27.737Z,64.83
2019-04-26T23:27:58.372Z,65.02
2019-04-26T23:30:27.691Z,65.39
2019-04-26T23:32:54.502Z,65.34
2019-04-26T23:35:24.080Z,65.92
2019-04-26T23:37:56.565Z,65.75
2019-04-26T23:40:25.656Z,65.97
2019-04-26T23:42:51.575Z,66.25
2019-04-26T23:45:19.294Z,66.37
2019-04-26T23:47:48.331Z,66.70
2019-04-26T23:50:17.105Z,66.34
2019-04-26T23:52:49.166Z,66.99
2019-04-26T23:55:16.494Z,67.43
2019-04-26T23:57:45.384Z,67.50
